createdAt,value
2023-04-18T00:01:49.033Z,6.28
2023-04-18T00:04:18.277Z,5.38
2023-04-18T00:06:47.246Z,6.43
2023-04-18T00:09:15.216Z,5.90
2023-04-18T00:11:45.880Z,5.57
2023-04-18T00:14:14.570Z,6.72
2023-04-18T00:16:44.121Z,6.68
2023-04-18T00:19:12.570Z,5.43
2023-04-18T00:21:45.009Z,6.05
2023-04-18T00:24:13.581Z,6.85
2023-04-18T00:26:41.708Z,6.28
2023-04-18T00:29:09.639Z,7.35
2023-04-18T00:31:37.688Z,8.38
2023-04-18T00:34:07.001Z,6.57
2023-04-18T00:36:34.943Z,6.55
2023-04-18T00:39:03.197Z,6.15
2023-04-18T00:41:31.394Z,7.63
2023-04-18T00:43:59.324Z,7.30
2023-04-18T00:46:27.315Z,7.00
2023-04-18T00:48:55.629Z,6.70
2023-04-18T00:51:25.664Z,5.50
2023-04-18T00:53:54.634Z,5.75
2023-04-18T00:56:23.835Z,6.07
2023-04-18T00:58:52.259Z,5.15
2023-04-18T01:01:20.228Z,7.07
2023-04-18T01:03:48.317Z,6.65
2023-04-18T01:06:16.671Z,9.32
2023-04-18T01:08:49.343Z,7.78
2023-04-18T01:11:17.373Z,5.00
2023-04-18T01:13:59.893Z,6.10
2023-04-18T01:16:28.321Z,6.95
2023-04-18T01:18:56.559Z,5.88
2023-04-18T01:21:24.480Z,8.07
2023-04-18T01:23:54.534Z,6.32
2023-04-18T01:26:23.873Z,6.40
2023-04-18T01:28:51.831Z,6.00
2023-04-18T01:31:19.839Z,6.53
2023-04-18T01:33:47.971Z,5.18
2023-04-18T01:36:15.971Z,6.40
2023-04-18T01:38:44.029Z,4.57
2023-04-18T01:41:11.968Z,6.30
2023-04-18T01:43:41.269Z,6.68
2023-04-18T01:46:09.241Z,5.13
2023-04-18T01:48:37.209Z,6.22
2023-04-18T01:51:05.883Z,5.53
2023-04-18T01:53:33.818Z,5.20
2023-04-18T01:56:01.782Z,6.28
2023-04-18T01:58:29.691Z,5.30
2023-04-18T02:00:59.013Z,7.38
2023-04-18T02:03:27.258Z,6.18
2023-04-18T02:05:55.432Z,5.65
2023-04-18T02:08:23.502Z,5.10
2023-04-18T02:10:51.443Z,5.50
2023-04-18T02:13:19.400Z,4.90
2023-04-18T02:15:47.671Z,7.57
2023-04-18T02:18:17.416Z,7.97
2023-04-18T02:20:45.634Z,5.97
2023-04-18T02:23:13.620Z,5.10
2023-04-18T02:25:41.547Z,5.82
2023-04-18T02:28:09.476Z,6.35
2023-04-18T02:30:37.390Z,5.55
2023-04-18T02:33:05.608Z,6.32
2023-04-18T02:35:34.970Z,6.25
2023-04-18T02:38:02.955Z,5.85
2023-04-18T02:40:30.892Z,6.22
2023-04-18T02:42:59.257Z,7.63
2023-04-18T02:45:27.248Z,5.25
2023-04-18T02:47:56.651Z,7.32
2023-04-18T02:50:25.202Z,7.28
2023-04-18T02:52:54.581Z,6.00
2023-04-18T02:55:23.040Z,7.55
2023-04-18T02:57:51.050Z,5.80
2023-04-18T03:00:19.717Z,6.38
2023-04-18T03:02:47.777Z,6.28
2023-04-18T03:05:15.866Z,5.25
2023-04-18T03:07:43.845Z,4.95
2023-04-18T03:10:13.381Z,5.68
2023-04-18T03:12:41.473Z,4.80
2023-04-18T03:15:10.223Z,5.72
2023-04-18T03:17:38.306Z,5.90
2023-04-18T03:20:08.019Z,6.78
2023-04-18T03:22:35.964Z,8.02
2023-04-18T03:25:03.880Z,6.15
2023-04-18T03:27:33.266Z,6.55
2023-04-18T03:30:01.246Z,10.73
2023-04-18T03:32:29.173Z,5.05
2023-04-18T03:34:57.132Z,6.38
2023-04-18T03:37:25.118Z,7.07
2023-04-18T03:39:53.241Z,6.03
2023-04-18T03:42:21.243Z,8.35
2023-04-18T03:44:50.581Z,5.93
2023-04-18T03:47:18.537Z,6.60
2023-04-18T03:49:46.650Z,6.65
2023-04-18T03:52:16.029Z,7.25
2023-04-18T03:54:44.125Z,6.15
2023-04-18T03:57:12.092Z,7.10
2023-04-18T03:59:40.021Z,5.70
2023-04-18T04:02:09.666Z,6.30
2023-04-18T04:04:37.826Z,5.93
2023-04-18T04:07:05.899Z,9.27
2023-04-18T04:09:33.869Z,5.78
2023-04-18T04:12:03.020Z,6.88
2023-04-18T04:14:30.975Z,5.60
2023-04-18T04:16:59.072Z,7.43
2023-04-18T04:19:28.396Z,6.80
2023-04-18T04:21:56.313Z,8.20
2023-04-18T04:24:24.268Z,5.88
2023-04-18T04:26:52.205Z,6.22
2023-04-18T04:29:21.467Z,6.43
2023-04-18T04:31:49.493Z,5.68
2023-04-18T04:34:17.672Z,5.20
2023-04-18T04:36:48.163Z,6.40
2023-04-18T04:39:17.424Z,5.90
2023-04-18T04:41:47.141Z,6.97
2023-04-18T04:44:17.947Z,8.70
2023-04-18T04:46:48.137Z,4.90
2023-04-18T04:49:16.105Z,5.45
2023-04-18T04:51:44.402Z,5.90
2023-04-18T04:54:14.065Z,6.43
2023-04-18T04:56:44.984Z,4.95
2023-04-18T04:59:12.992Z,5.53
2023-04-18T05:01:43.487Z,6.82
2023-04-18T05:04:12.819Z,8.15
2023-04-18T05:06:41.368Z,4.88
2023-04-18T05:09:09.292Z,5.03
2023-04-18T05:11:41.773Z,6.50
2023-04-18T05:14:09.749Z,6.72
2023-04-18T05:16:37.733Z,6.47
2023-04-18T05:19:07.411Z,5.22
2023-04-18T05:21:35.663Z,6.43
2023-04-18T05:24:03.559Z,5.35
2023-04-18T05:26:34.079Z,5.53
2023-04-18T05:29:03.465Z,5.03
2023-04-18T05:31:31.469Z,5.82
2023-04-18T05:33:59.473Z,4.97
2023-04-18T05:36:27.779Z,6.45
2023-04-18T05:38:55.702Z,7.05
2023-04-18T05:41:24.041Z,6.50
2023-04-18T05:44:02.276Z,6.82
2023-04-18T05:46:34.637Z,6.70
2023-04-18T05:49:03.478Z,4.90
2023-04-18T05:51:34.275Z,6.00
2023-04-18T05:54:02.275Z,4.82
2023-04-18T05:56:32.274Z,4.80
2023-04-18T05:59:00.194Z,5.95
2023-04-18T06:01:28.738Z,4.82
2023-04-18T06:03:58.286Z,5.68
2023-04-18T06:06:27.356Z,5.82
2023-04-18T06:08:55.525Z,7.88
2023-04-18T06:11:23.514Z,4.50
2023-04-18T06:13:51.442Z,3.97
2023-04-18T06:16:19.423Z,5.90
2023-04-18T06:18:49.917Z,4.90
2023-04-18T06:21:22.121Z,6.35
2023-04-18T06:23:50.074Z,5.88
2023-04-18T06:26:18.331Z,7.30
2023-04-18T06:28:46.389Z,4.75
2023-04-18T06:31:14.404Z,4.72
2023-04-18T06:33:42.400Z,5.40
2023-04-18T06:36:10.761Z,5.43
2023-04-18T06:38:40.082Z,5.15
2023-04-18T06:41:08.045Z,5.75
2023-04-18T06:43:36.538Z,4.68
2023-04-18T06:46:06.170Z,4.68
2023-04-18T06:48:34.251Z,4.75
2023-04-18T06:51:02.155Z,6.78
2023-04-18T06:53:30.592Z,4.93
2023-04-18T06:56:00.396Z,4.55
2023-04-18T06:58:28.476Z,4.60
2023-04-18T07:00:56.430Z,4.10
2023-04-18T07:03:24.554Z,5.57
2023-04-18T07:05:55.662Z,5.03
2023-04-18T07:08:23.676Z,4.45
2023-04-18T07:10:51.679Z,6.65
2023-04-18T07:13:21.013Z,4.07
2023-04-18T07:15:49.068Z,4.70
2023-04-18T07:18:30.258Z,4.40
2023-04-18T07:21:07.527Z,4.03
2023-04-18T07:23:36.093Z,4.13
2023-04-18T07:26:06.473Z,5.97
2023-04-18T07:28:35.797Z,5.50
2023-04-18T07:31:04.611Z,5.55
2023-04-18T07:33:33.978Z,4.03
2023-04-18T07:36:02.795Z,5.68
2023-04-18T07:38:30.742Z,8.88
2023-04-18T07:41:03.394Z,4.13
2023-04-18T07:43:31.399Z,3.55
2023-04-18T07:46:00.746Z,4.72
2023-04-18T07:48:28.799Z,4.88
2023-04-18T07:50:56.754Z,5.22
2023-04-18T07:53:24.770Z,5.32
2023-04-18T07:55:54.401Z,4.68
2023-04-18T07:58:22.493Z,6.03
2023-04-18T08:00:50.660Z,4.07
2023-04-18T08:03:28.346Z,3.95
2023-04-18T08:05:59.819Z,4.82
2023-04-18T08:08:29.531Z,4.15
2023-04-18T08:10:57.475Z,4.22
2023-04-18T08:13:25.430Z,3.72
2023-04-18T08:15:53.467Z,4.25
2023-04-18T08:18:23.841Z,3.65
2023-04-18T08:20:51.851Z,3.30
2023-04-18T08:23:19.865Z,3.75
2023-04-18T08:25:51.013Z,6.93
2023-04-18T08:28:19.110Z,3.85
2023-04-18T08:30:49.110Z,4.95
2023-04-18T08:33:17.287Z,5.03
2023-04-18T08:35:46.776Z,3.42
2023-04-18T08:38:14.795Z,3.10
2023-04-18T08:40:45.533Z,3.30
2023-04-18T08:43:15.199Z,4.00
2023-04-18T08:45:43.538Z,4.05
2023-04-18T08:48:13.802Z,3.45
2023-04-18T08:50:41.803Z,3.35
2023-04-18T08:53:11.934Z,3.20
2023-04-18T08:55:40.540Z,7.47
2023-04-18T08:58:12.527Z,2.95
2023-04-18T09:00:40.638Z,3.17
2023-04-18T09:03:15.522Z,3.45
2023-04-18T09:05:43.576Z,3.00
2023-04-18T09:08:25.149Z,5.82
2023-04-18T09:10:53.160Z,3.90
2023-04-18T09:13:40.437Z,4.18
2023-04-18T09:16:08.592Z,6.07
2023-04-18T09:18:36.603Z,3.92
2023-04-18T09:21:19.419Z,4.45
2023-04-18T09:23:50.426Z,8.02
2023-04-18T09:26:33.647Z,5.03
2023-04-18T09:29:03.264Z,4.13
2023-04-18T09:31:31.409Z,4.13
2023-04-18T09:34:00.726Z,6.00
2023-04-18T09:36:28.994Z,5.68
2023-04-18T09:38:58.409Z,6.32
2023-04-18T09:41:27.099Z,9.68
2023-04-18T09:44:14.486Z,4.03
2023-04-18T09:46:47.815Z,4.78
2023-04-18T09:49:16.318Z,6.15
2023-04-18T09:51:47.493Z,3.43
2023-04-18T09:54:18.189Z,4.40
2023-04-18T09:56:47.958Z,7.88
2023-04-18T09:59:22.696Z,5.40
2023-04-18T10:01:52.120Z,4.82
2023-04-18T10:04:21.313Z,10.55
2023-04-18T10:06:49.971Z,2.90
2023-04-18T10:09:19.711Z,3.75
2023-04-18T10:11:48.267Z,4.40
2023-04-18T10:14:17.415Z,3.85
2023-04-18T10:16:50.491Z,4.22
2023-04-18T10:19:23.834Z,3.63
2023-04-18T10:21:56.076Z,2.83
2023-04-18T10:27:12.165Z,5.30
2023-04-18T10:29:50.680Z,3.92
2023-04-18T10:32:20.182Z,5.85
2023-04-18T10:34:48.620Z,3.25
2023-04-18T10:37:17.746Z,6.63
2023-04-18T10:39:57.405Z,3.42
2023-04-18T10:43:00.530Z,2.92
2023-04-18T10:45:33.373Z,4.03
2023-04-18T10:48:24.363Z,6.88
2023-04-18T10:51:17.612Z,2.90
2023-04-18T10:53:52.635Z,3.10
2023-04-18T10:56:21.099Z,7.22
2023-04-18T10:58:53.727Z,5.25
2023-04-18T11:01:31.215Z,5.82
2023-04-18T11:04:01.175Z,4.80
2023-04-18T11:06:32.394Z,4.97
2023-04-18T11:09:13.655Z,4.18
2023-04-18T11:11:43.459Z,2.95
2023-04-18T11:14:13.260Z,5.03
2023-04-18T11:16:41.604Z,3.28
2023-04-18T11:19:20.970Z,3.67
2023-04-18T11:21:49.205Z,2.78
2023-04-18T11:24:24.071Z,4.45
2023-04-18T11:26:56.033Z,4.60
2023-04-18T11:29:25.729Z,4.55
2023-04-18T11:31:58.297Z,4.32
2023-04-18T11:34:30.387Z,5.47
2023-04-18T11:36:58.549Z,4.05
2023-04-18T11:39:28.211Z,4.13
2023-04-18T11:41:57.239Z,3.75
2023-04-18T11:44:27.765Z,4.15
2023-04-18T11:46:55.858Z,4.90
2023-04-18T11:49:28.244Z,3.05
2023-04-18T11:51:56.481Z,3.75
2023-04-18T11:54:38.632Z,4.47
2023-04-18T11:57:07.096Z,4.60
2023-04-18T11:59:36.464Z,5.45
2023-04-18T12:02:16.144Z,3.47
2023-04-18T12:04:56.131Z,5.03
2023-04-18T12:07:36.115Z,3.78
2023-04-18T12:10:06.257Z,4.10
2023-04-18T12:12:34.888Z,4.95
2023-04-18T12:15:09.944Z,2.83
2023-04-18T12:17:38.785Z,4.28
2023-04-18T12:20:10.022Z,4.55
2023-04-18T12:22:40.022Z,4.00
2023-04-18T12:25:19.982Z,4.13
2023-04-18T12:27:52.309Z,4.72
2023-04-18T12:32:52.424Z,4.43
2023-04-18T12:35:21.672Z,3.85
2023-04-18T12:37:51.034Z,4.25
2023-04-18T12:40:19.866Z,3.63
2023-04-18T12:42:48.501Z,4.10
2023-04-18T12:45:17.685Z,4.57
2023-04-18T12:47:51.536Z,5.70
2023-04-18T12:50:22.019Z,5.40
2023-04-18T12:52:51.924Z,4.07
2023-04-18T12:55:19.900Z,3.50
2023-04-18T12:57:54.263Z,4.97
2023-04-18T13:00:23.488Z,5.53
2023-04-18T13:02:53.456Z,3.40
2023-04-18T13:05:23.313Z,3.22
2023-04-18T13:10:41.150Z,5.65
2023-04-18T13:13:09.169Z,4.28
2023-04-18T13:15:37.275Z,5.43
2023-04-18T13:18:06.959Z,5.60
2023-04-18T13:20:35.829Z,3.65
2023-04-18T13:23:04.155Z,7.45
2023-04-18T13:25:32.459Z,8.55
2023-04-18T13:28:01.050Z,14.82
2023-04-18T13:30:29.329Z,8.90
2023-04-18T13:33:00.247Z,13.10
2023-04-18T13:35:29.769Z,10.88
2023-04-18T13:37:57.732Z,8.15
2023-04-18T13:40:25.676Z,6.05
2023-04-18T13:42:53.645Z,9.30
2023-04-18T13:45:21.679Z,7.13
2023-04-18T13:47:49.728Z,7.00
2023-04-18T13:50:17.689Z,6.22
2023-04-18T13:52:49.272Z,7.25
2023-04-18T13:55:17.961Z,5.50
2023-04-18T13:57:45.976Z,8.18
2023-04-18T14:00:15.248Z,6.28
2023-04-18T14:02:43.575Z,6.38
2023-04-18T14:05:11.952Z,4.95
2023-04-18T14:07:42.595Z,5.88
2023-04-18T14:10:12.547Z,6.72
2023-04-18T14:12:41.039Z,6.97
2023-04-18T14:15:10.655Z,3.50
2023-04-18T14:17:38.639Z,4.57
2023-04-18T14:20:08.495Z,5.72
2023-04-18T14:22:36.691Z,5.15
2023-04-18T14:25:05.051Z,3.85
2023-04-18T14:27:34.379Z,5.53
2023-04-18T14:30:02.298Z,7.45
2023-04-18T14:32:32.966Z,9.00
2023-04-18T14:35:00.917Z,6.95
2023-04-18T14:37:28.810Z,4.53
2023-04-18T14:39:56.757Z,4.88
2023-04-18T14:42:24.768Z,4.70
2023-04-18T14:44:54.156Z,5.10
2023-04-18T14:47:24.245Z,5.53
2023-04-18T14:49:52.500Z,4.57
2023-04-18T14:52:20.445Z,6.22
2023-04-18T14:54:48.377Z,6.03
2023-04-18T14:57:16.325Z,4.43
2023-04-18T14:59:44.294Z,6.13
2023-04-18T15:02:13.791Z,3.90
2023-04-18T15:04:41.926Z,4.78
2023-04-18T15:07:10.113Z,5.65
2023-04-18T15:09:38.367Z,4.82
2023-04-18T15:12:07.593Z,4.53
2023-04-18T15:14:36.181Z,5.03
2023-04-18T15:17:04.580Z,4.18
2023-04-18T15:19:34.505Z,7.22
2023-04-18T15:22:03.439Z,4.50
2023-04-18T15:24:31.535Z,5.43
2023-04-18T15:26:59.533Z,3.78
2023-04-18T15:29:27.623Z,5.22
2023-04-18T15:31:55.911Z,4.35
2023-04-18T15:34:23.889Z,6.07
2023-04-18T15:36:53.167Z,6.28
2023-04-18T15:39:23.522Z,4.32
2023-04-18T15:41:55.067Z,5.13
2023-04-18T15:44:23.333Z,24.00
2023-04-18T15:46:51.874Z,26.25
2023-04-18T15:49:20.034Z,28.45
2023-04-18T15:51:48.022Z,45.60
2023-04-18T15:54:17.346Z,89.35
2023-04-18T15:56:45.744Z,52.78
2023-04-18T15:59:16.496Z,43.67
2023-04-18T16:01:46.097Z,45.58
2023-04-18T16:04:14.586Z,47.10
2023-04-18T16:06:43.237Z,46.42
2023-04-18T16:09:11.277Z,43.58
2023-04-18T16:11:40.715Z,36.08
2023-04-18T16:14:08.824Z,39.42
2023-04-18T16:16:36.787Z,36.80
2023-04-18T16:19:05.513Z,36.33
2023-04-18T16:21:33.582Z,35.45
2023-04-18T16:24:04.443Z,34.45
2023-04-18T16:26:32.473Z,30.20
2023-04-18T16:29:01.743Z,31.48
2023-04-18T16:31:29.800Z,27.48
2023-04-18T16:33:57.910Z,31.13
2023-04-18T16:36:26.016Z,29.20
2023-04-18T16:38:54.000Z,26.35
2023-04-18T16:41:22.178Z,29.38
2023-04-18T16:43:50.245Z,29.20
2023-04-18T16:46:20.007Z,27.65
2023-04-18T16:51:20.605Z,26.85
2023-04-18T16:53:49.257Z,27.33
2023-04-18T16:56:17.290Z,26.05
2023-04-18T16:58:45.490Z,22.90
2023-04-18T17:01:13.543Z,21.27
2023-04-18T17:03:42.952Z,26.40
2023-04-18T17:06:11.029Z,25.33
2023-04-18T17:08:39.063Z,21.67
2023-04-18T17:11:08.083Z,22.38
2023-04-18T17:13:36.424Z,20.08
2023-04-18T17:16:04.534Z,21.83
2023-04-18T17:18:33.078Z,21.50
2023-04-18T17:21:02.476Z,21.05
2023-04-18T17:23:32.654Z,22.05
2023-04-18T17:26:00.961Z,20.83
2023-04-18T17:28:28.932Z,20.08
2023-04-18T17:30:57.521Z,18.42
2023-04-18T17:33:25.560Z,17.63
2023-04-18T17:35:53.801Z,18.25
2023-04-18T17:38:23.168Z,16.83
2023-04-18T17:40:59.675Z,18.27
2023-04-18T17:43:27.867Z,17.42
2023-04-18T17:45:56.981Z,18.65
2023-04-18T17:48:25.135Z,17.83
2023-04-18T17:50:53.058Z,16.42
2023-04-18T17:53:21.011Z,18.98
2023-04-18T17:55:52.916Z,13.90
2023-04-18T17:58:21.009Z,16.77
2023-04-18T18:00:49.104Z,18.35
2023-04-18T18:03:18.042Z,14.90
2023-04-18T18:05:47.125Z,18.48
2023-04-18T18:08:15.391Z,13.05
2023-04-18T18:10:44.333Z,13.85
2023-04-18T18:13:13.742Z,15.90
2023-04-18T18:15:41.651Z,12.73
2023-04-18T18:18:09.643Z,13.52
2023-04-18T18:20:37.561Z,16.65
2023-04-18T18:23:06.828Z,12.70
2023-04-18T18:25:37.842Z,13.90
2023-04-18T18:28:07.343Z,15.95
2023-04-18T18:30:37.993Z,15.90
2023-04-18T18:33:08.270Z,14.70
2023-04-18T18:35:36.322Z,11.52
2023-04-18T18:38:04.392Z,12.55
2023-04-18T18:40:32.371Z,14.98
2023-04-18T18:43:01.621Z,12.32
2023-04-18T18:45:29.706Z,11.40
2023-04-18T18:47:59.079Z,9.48
2023-04-18T18:50:27.132Z,13.23
2023-04-18T18:52:57.584Z,9.20
2023-04-18T18:55:25.682Z,11.15
2023-04-18T18:57:53.725Z,12.32
2023-04-18T19:00:21.849Z,10.63
2023-04-18T19:02:50.015Z,11.10
2023-04-18T19:05:19.415Z,9.65
2023-04-18T19:07:48.308Z,11.75
2023-04-18T19:10:16.236Z,10.10
2023-04-18T19:12:44.486Z,8.90
2023-04-18T19:15:13.125Z,7.97
2023-04-18T19:17:41.655Z,7.78
2023-04-18T19:20:10.540Z,8.65
2023-04-18T19:22:40.139Z,7.93
2023-04-18T19:25:09.643Z,9.68
2023-04-18T19:27:37.668Z,7.55
2023-04-18T19:30:06.457Z,7.85
2023-04-18T19:32:34.502Z,8.15
2023-04-18T19:35:02.481Z,7.88
2023-04-18T19:37:33.260Z,7.72
2023-04-18T19:40:02.749Z,8.68
2023-04-18T19:42:30.927Z,7.82
2023-04-18T19:44:59.393Z,6.40
2023-04-18T19:47:27.998Z,7.82
2023-04-18T19:49:56.009Z,8.25
2023-04-18T19:52:23.974Z,6.05
2023-04-18T19:54:53.298Z,7.75
2023-04-18T19:57:22.692Z,9.63
2023-04-18T19:59:50.837Z,5.07
2023-04-18T20:02:19.013Z,5.28
2023-04-18T20:04:47.244Z,7.20
2023-04-18T20:07:15.343Z,7.18
2023-04-18T20:09:43.292Z,7.15
2023-04-18T20:12:11.190Z,4.93
2023-04-18T20:14:40.662Z,7.32
2023-04-18T20:17:08.703Z,7.47
2023-04-18T20:19:37.333Z,5.75
2023-04-18T20:22:05.922Z,8.60
2023-04-18T20:24:39.279Z,6.13
2023-04-18T20:27:07.425Z,6.03
2023-04-18T20:29:35.374Z,7.00
2023-04-18T20:32:04.778Z,6.05
2023-04-18T20:34:32.698Z,6.13
2023-04-18T20:37:00.799Z,6.80
2023-04-18T20:39:29.098Z,4.65
2023-04-18T20:41:57.791Z,6.78
2023-04-18T20:44:25.863Z,6.03
2023-04-18T20:46:54.117Z,6.30
2023-04-18T20:49:23.496Z,6.18
2023-04-18T20:51:51.469Z,7.38
2023-04-18T20:54:19.378Z,8.25
2023-04-18T20:56:47.320Z,6.18
2023-04-18T20:59:15.294Z,5.85
2023-04-18T21:01:43.271Z,4.65
2023-04-18T21:04:11.381Z,5.97
2023-04-18T21:06:40.921Z,8.40
2023-04-18T21:09:08.974Z,5.82
2023-04-18T21:11:36.941Z,6.20
2023-04-18T21:14:06.686Z,5.72
2023-04-18T21:16:36.021Z,4.72
2023-04-18T21:19:04.026Z,6.60
2023-04-18T21:21:34.239Z,4.75
2023-04-18T21:24:03.738Z,5.30
2023-04-18T21:26:31.933Z,6.57
2023-04-18T21:29:01.159Z,5.32
2023-04-18T21:31:31.716Z,4.90
2023-04-18T21:34:01.269Z,6.05
2023-04-18T21:36:30.970Z,5.72
2023-04-18T21:39:00.527Z,4.13
2023-04-18T21:41:29.857Z,6.05
2023-04-18T21:43:57.868Z,4.93
2023-04-18T21:46:26.103Z,3.67
2023-04-18T21:48:54.289Z,4.35
2023-04-18T21:51:22.504Z,7.18
2023-04-18T21:53:50.534Z,3.88
2023-04-18T21:56:20.693Z,5.68
2023-04-18T21:58:50.434Z,3.35
2023-04-18T22:01:18.480Z,4.72
2023-04-18T22:03:46.989Z,4.80
2023-04-18T22:06:14.988Z,6.35
2023-04-18T22:08:43.651Z,6.00
2023-04-18T22:11:13.651Z,4.38
2023-04-18T22:13:44.735Z,6.22
2023-04-18T22:16:14.124Z,4.40
2023-04-18T22:18:42.095Z,5.78
2023-04-18T22:21:10.550Z,4.25
2023-04-18T22:23:38.563Z,4.82
2023-04-18T22:26:08.581Z,4.75
2023-04-18T22:28:36.612Z,5.18
2023-04-18T22:31:04.714Z,3.97
2023-04-18T22:33:34.052Z,4.30
2023-04-18T22:36:02.169Z,5.03
2023-04-18T22:38:30.151Z,5.80
2023-04-18T22:41:00.403Z,4.72
2023-04-18T22:43:28.796Z,4.60
2023-04-18T22:45:56.821Z,5.05
2023-04-18T22:48:24.746Z,4.88
2023-04-18T22:50:54.330Z,5.22
2023-04-18T22:53:24.824Z,5.95
2023-04-18T22:55:52.757Z,5.90
2023-04-18T22:58:20.701Z,6.75
2023-04-18T23:00:48.648Z,5.20
2023-04-18T23:03:16.710Z,5.65
2023-04-18T23:05:44.935Z,5.75
2023-04-18T23:08:14.335Z,4.85
2023-04-18T23:10:44.756Z,5.13
2023-04-18T23:13:14.480Z,4.78
2023-04-18T23:15:42.527Z,4.45
2023-04-18T23:18:10.641Z,4.45
2023-04-18T23:20:38.605Z,4.93
2023-04-18T23:23:06.537Z,5.43
2023-04-18T23:25:35.913Z,5.53
2023-04-18T23:28:03.858Z,4.20
2023-04-18T23:30:31.829Z,6.03
2023-04-18T23:32:59.759Z,4.57
2023-04-18T23:35:27.987Z,5.68
2023-04-18T23:37:57.119Z,4.80
2023-04-18T23:40:25.169Z,4.85
2023-04-18T23:42:54.523Z,5.57
2023-04-18T23:45:24.369Z,6.00
2023-04-18T23:47:52.781Z,4.70
2023-04-18T23:50:23.547Z,4.47
2023-04-18T23:52:51.518Z,5.15
2023-04-18T23:55:19.400Z,5.47
2023-04-18T23:57:47.468Z,7.50
